createdAt,value
2022-08-20T00:00:42.685Z,15.30
2022-08-20T00:03:23.340Z,15.30
2022-08-20T00:06:00.997Z,15.30
2022-08-20T00:08:28.332Z,15.30
2022-08-20T00:10:56.061Z,15.30
2022-08-20T00:13:33.307Z,15.30
2022-08-20T00:16:00.264Z,15.30
2022-08-20T00:18:27.520Z,15.30
2022-08-20T00:20:56.740Z,15.30
2022-08-20T00:23:24.006Z,15.30
2022-08-20T00:25:51.436Z,15.30
2022-08-20T00:28:18.670Z,15.20
2022-08-20T00:30:46.610Z,15.20
2022-08-20T00:33:16.854Z,15.30
2022-08-20T00:35:47.733Z,15.30
2022-08-20T00:38:14.745Z,15.30
2022-08-20T00:40:47.024Z,15.30
2022-08-20T00:43:46.484Z,15.30
2022-08-20T00:46:19.946Z,15.30
2022-08-20T00:48:51.013Z,15.30
2022-08-20T00:51:27.158Z,15.30
2022-08-20T00:54:02.969Z,15.30
2022-08-20T00:56:33.877Z,15.30
2022-08-20T00:59:01.904Z,15.30
2022-08-20T01:01:29.011Z,15.30
2022-08-20T01:03:56.641Z,15.20
2022-08-20T01:06:25.130Z,15.20
2022-08-20T01:08:52.259Z,15.20
2022-08-20T01:11:22.505Z,15.20
2022-08-20T01:13:50.505Z,15.20
2022-08-20T01:16:25.173Z,15.20
2022-08-20T01:18:57.525Z,15.20
2022-08-20T01:21:28.268Z,15.20
2022-08-20T01:24:28.322Z,15.20
2022-08-20T01:26:56.695Z,15.20
2022-08-20T01:29:28.619Z,15.20
2022-08-20T01:32:01.250Z,15.20
2022-08-20T01:34:28.511Z,15.20
2022-08-20T01:36:57.405Z,15.20
2022-08-20T01:39:31.176Z,15.20
2022-08-20T01:42:07.822Z,15.20
2022-08-20T01:44:37.965Z,15.10
2022-08-20T01:47:14.394Z,15.20
2022-08-20T01:49:47.188Z,15.20
2022-08-20T01:52:32.849Z,15.20
2022-08-20T01:55:00.131Z,15.10
2022-08-20T01:57:27.299Z,15.20
2022-08-20T01:59:54.132Z,15.20
2022-08-20T02:02:21.034Z,15.10
2022-08-20T02:04:48.298Z,15.10
2022-08-20T02:07:19.388Z,15.10
2022-08-20T02:09:47.473Z,15.10
2022-08-20T02:12:14.670Z,15.10
2022-08-20T02:14:52.157Z,15.10
2022-08-20T02:17:22.877Z,15.10
2022-08-20T02:19:55.298Z,15.20
2022-08-20T02:22:30.497Z,15.10
2022-08-20T02:24:57.220Z,15.10
2022-08-20T02:27:24.344Z,15.10
2022-08-20T02:29:52.487Z,15.10
2022-08-20T02:32:24.718Z,15.10
2022-08-20T02:35:03.413Z,15.20
2022-08-20T02:37:30.553Z,15.10
2022-08-20T02:39:57.346Z,15.20
2022-08-20T02:42:24.111Z,15.20
2022-08-20T02:44:50.809Z,15.10
2022-08-20T02:47:17.696Z,15.20
2022-08-20T02:49:44.468Z,15.20
2022-08-20T02:52:11.216Z,15.20
2022-08-20T02:54:38.028Z,15.20
2022-08-20T02:57:05.256Z,15.20
2022-08-20T02:59:31.965Z,15.20
2022-08-20T03:02:00.784Z,15.20
2022-08-20T03:04:31.069Z,15.20
2022-08-20T03:06:58.458Z,15.20
2022-08-20T03:09:25.647Z,15.20
2022-08-20T03:11:52.872Z,15.20
2022-08-20T03:14:19.731Z,15.20
2022-08-20T03:16:46.421Z,15.20
2022-08-20T03:19:13.792Z,15.20
2022-08-20T03:21:40.887Z,15.10
2022-08-20T03:24:07.827Z,15.10
2022-08-20T03:26:34.664Z,15.10
2022-08-20T03:29:02.047Z,15.10
2022-08-20T03:31:29.603Z,15.00
2022-08-20T03:33:56.467Z,15.10
2022-08-20T03:36:27.819Z,15.10
2022-08-20T03:39:01.681Z,15.10
2022-08-20T03:41:28.972Z,15.10
2022-08-20T03:43:55.999Z,15.10
2022-08-20T03:46:23.470Z,15.10
2022-08-20T03:48:56.316Z,15.10
2022-08-20T03:51:28.591Z,15.10
2022-08-20T03:53:55.380Z,15.10
2022-08-20T03:56:22.082Z,15.10
2022-08-20T03:58:48.824Z,15.00
2022-08-20T04:01:44.228Z,15.00
2022-08-20T04:04:02.293Z,15.00
2022-08-20T04:06:30.315Z,14.90
2022-08-20T04:08:57.209Z,14.90
2022-08-20T04:11:24.382Z,14.90
2022-08-20T04:13:51.436Z,15.00
2022-08-20T04:16:19.544Z,14.90
2022-08-20T04:19:01.743Z,14.90
2022-08-20T04:21:34.187Z,15.00
2022-08-20T04:24:02.987Z,14.90
2022-08-20T04:26:30.818Z,14.90
2022-08-20T04:28:57.594Z,15.00
2022-08-20T04:31:33.087Z,14.90
2022-08-20T04:34:04.763Z,14.90
2022-08-20T04:36:31.650Z,14.90
2022-08-20T04:38:58.881Z,14.90
2022-08-20T04:41:25.707Z,14.90
2022-08-20T04:43:54.421Z,14.90
2022-08-20T04:46:25.363Z,14.90
2022-08-20T04:48:52.173Z,14.90
2022-08-20T04:51:23.085Z,14.90
2022-08-20T04:53:53.649Z,14.90
2022-08-20T04:56:26.941Z,14.90
2022-08-20T04:58:56.037Z,14.90
2022-08-20T05:01:23.838Z,15.00
2022-08-20T05:03:53.552Z,15.00
2022-08-20T05:06:21.309Z,15.00
2022-08-20T05:08:48.179Z,15.00
2022-08-20T05:11:32.657Z,15.00
2022-08-20T05:14:02.423Z,14.90
2022-08-20T05:16:29.564Z,14.90
2022-08-20T05:18:56.272Z,15.00
2022-08-20T05:21:23.052Z,14.90
2022-08-20T05:23:49.757Z,14.90
2022-08-20T05:26:17.077Z,14.90
2022-08-20T05:28:54.309Z,14.90
2022-08-20T05:31:31.436Z,14.90
2022-08-20T05:34:10.722Z,14.90
2022-08-20T05:36:40.180Z,14.90
2022-08-20T05:39:08.871Z,14.90
2022-08-20T05:41:36.610Z,15.00
2022-08-20T05:44:04.233Z,15.00
2022-08-20T05:46:31.959Z,14.90
2022-08-20T05:49:01.476Z,14.90
2022-08-20T05:51:29.304Z,14.90
2022-08-20T05:53:57.511Z,15.00
2022-08-20T05:56:30.477Z,15.00
2022-08-20T05:58:58.373Z,15.00
2022-08-20T06:01:25.181Z,15.10
2022-08-20T06:04:10.513Z,15.10
2022-08-20T06:06:45.046Z,15.10
2022-08-20T06:09:31.290Z,15.10
2022-08-20T06:12:05.861Z,15.20
2022-08-20T06:14:32.982Z,15.20
2022-08-20T06:17:04.914Z,15.30
2022-08-20T06:19:33.287Z,15.30
2022-08-20T06:22:00.859Z,15.40
2022-08-20T06:24:27.686Z,15.40
2022-08-20T06:27:02.853Z,15.40
2022-08-20T06:29:30.255Z,15.40
2022-08-20T06:31:56.988Z,15.50
2022-08-20T06:34:28.058Z,15.60
2022-08-20T06:36:57.051Z,15.60
2022-08-20T06:39:25.051Z,15.50
2022-08-20T06:41:54.425Z,15.60
2022-08-20T06:44:22.151Z,15.60
2022-08-20T06:46:48.914Z,15.60
2022-08-20T06:49:15.612Z,15.60
2022-08-20T06:51:42.312Z,15.80
2022-08-20T06:54:09.065Z,15.70
2022-08-20T06:56:35.830Z,15.80
2022-08-20T06:59:02.557Z,15.90
2022-08-20T07:01:29.543Z,15.90
2022-08-20T07:03:59.570Z,16.00
2022-08-20T07:06:27.135Z,16.00
2022-08-20T07:08:54.686Z,15.90
2022-08-20T07:11:27.211Z,16.00
2022-08-20T07:13:56.553Z,16.00
2022-08-20T07:16:23.783Z,16.10
2022-08-20T07:18:50.681Z,16.00
2022-08-20T07:21:17.429Z,16.00
2022-08-20T07:23:44.530Z,16.00
2022-08-20T07:26:11.258Z,16.10
2022-08-20T07:28:38.157Z,16.00
2022-08-20T07:31:23.676Z,16.20
2022-08-20T07:33:50.711Z,16.30
2022-08-20T07:36:20.288Z,16.30
2022-08-20T07:38:47.886Z,16.40
2022-08-20T07:41:15.104Z,16.40
2022-08-20T07:43:45.138Z,16.20
2022-08-20T07:46:13.326Z,16.30
2022-08-20T07:48:41.903Z,16.30
2022-08-20T07:51:10.874Z,16.30
2022-08-20T07:53:39.112Z,16.30
2022-08-20T07:56:08.171Z,16.30
2022-08-20T07:58:36.686Z,16.30
2022-08-20T08:01:05.120Z,16.30
2022-08-20T08:03:40.837Z,16.30
2022-08-20T08:06:29.775Z,16.40
2022-08-20T08:09:11.586Z,16.40
2022-08-20T08:11:47.285Z,16.40
2022-08-20T08:14:15.163Z,16.50
2022-08-20T08:16:45.575Z,16.50
2022-08-20T08:19:15.705Z,16.50
2022-08-20T08:21:44.244Z,16.60
2022-08-20T08:24:14.354Z,16.60
2022-08-20T08:26:43.692Z,16.80
2022-08-20T08:29:12.054Z,16.80
2022-08-20T08:31:40.878Z,16.80
2022-08-20T08:34:07.984Z,16.90
2022-08-20T08:36:35.082Z,16.90
2022-08-20T08:39:01.921Z,16.90
2022-08-20T08:41:39.768Z,17.00
2022-08-20T08:44:14.235Z,17.00
2022-08-20T08:46:44.105Z,17.00
2022-08-20T08:49:16.373Z,17.00
2022-08-20T08:51:51.512Z,17.20
2022-08-20T08:54:24.813Z,17.30
2022-08-20T08:56:52.644Z,17.20
2022-08-20T08:59:20.587Z,17.10
2022-08-20T09:01:57.396Z,17.00
2022-08-20T09:04:39.369Z,17.10
2022-08-20T09:07:13.374Z,17.30
2022-08-20T09:09:44.933Z,17.30
2022-08-20T09:12:20.569Z,17.20
2022-08-20T09:14:48.590Z,17.30
2022-08-20T09:17:16.612Z,17.40
2022-08-20T09:19:43.389Z,17.30
2022-08-20T09:22:13.146Z,17.30
2022-08-20T09:24:40.543Z,17.30
2022-08-20T09:27:07.629Z,17.40
2022-08-20T09:29:34.399Z,17.70
2022-08-20T09:32:10.746Z,17.80
2022-08-20T09:34:40.260Z,18.20
2022-08-20T09:37:07.369Z,18.30
2022-08-20T09:39:34.451Z,18.20
2022-08-20T09:42:10.438Z,18.40
2022-08-20T09:44:37.508Z,18.40
2022-08-20T09:47:04.653Z,18.40
2022-08-20T09:49:31.632Z,18.50
2022-08-20T09:52:01.236Z,18.40
2022-08-20T09:54:30.135Z,18.30
2022-08-20T09:57:04.544Z,18.20
2022-08-20T09:59:33.497Z,18.20
2022-08-20T10:02:00.275Z,18.30
2022-08-20T10:04:27.282Z,18.40
2022-08-20T10:06:54.620Z,18.50
2022-08-20T10:09:21.442Z,18.50
2022-08-20T10:11:48.189Z,18.50
2022-08-20T10:14:14.874Z,18.50
2022-08-20T10:16:41.710Z,18.60
2022-08-20T10:19:08.412Z,18.90
2022-08-20T10:21:38.576Z,19.20
2022-08-20T10:24:05.920Z,19.50
2022-08-20T10:26:32.660Z,19.70
2022-08-20T10:28:59.387Z,19.50
2022-08-20T10:31:26.102Z,19.70
2022-08-20T10:33:52.806Z,20.00
2022-08-20T10:36:19.691Z,20.20
2022-08-20T10:38:48.426Z,20.10
2022-08-20T10:41:15.171Z,19.80
2022-08-20T10:43:41.943Z,19.60
2022-08-20T10:46:09.128Z,19.40
2022-08-20T10:48:35.976Z,19.40
2022-08-20T10:51:02.792Z,19.10
2022-08-20T10:53:30.153Z,19.00
2022-08-20T10:55:57.879Z,19.00
2022-08-20T10:58:25.990Z,19.30
2022-08-20T11:01:02.382Z,19.50
2022-08-20T11:03:29.112Z,19.70
2022-08-20T11:05:55.803Z,19.90
2022-08-20T11:08:33.830Z,20.10
2022-08-20T11:11:04.822Z,20.40
2022-08-20T11:13:32.591Z,20.30
2022-08-20T11:15:59.358Z,20.20
2022-08-20T11:18:26.102Z,20.00
2022-08-20T11:20:52.812Z,19.90
2022-08-20T11:23:19.668Z,19.80
2022-08-20T11:25:46.559Z,19.80
2022-08-20T11:28:13.849Z,19.90
2022-08-20T11:30:41.114Z,19.90
2022-08-20T11:33:08.172Z,19.80
2022-08-20T11:35:43.393Z,19.70
2022-08-20T11:38:16.935Z,19.70
2022-08-20T11:40:43.672Z,19.50
2022-08-20T11:43:14.800Z,19.50
2022-08-20T11:45:47.507Z,19.50
2022-08-20T11:48:14.349Z,19.60
2022-08-20T11:50:41.134Z,19.60
2022-08-20T11:53:08.114Z,19.50
2022-08-20T11:55:35.408Z,19.50
2022-08-20T11:58:02.343Z,19.40
2022-08-20T12:00:33.377Z,19.40
2022-08-20T12:03:02.392Z,19.00
2022-08-20T12:05:31.974Z,18.70
2022-08-20T12:08:01.314Z,18.30
2022-08-20T12:10:29.057Z,18.00
2022-08-20T12:12:56.678Z,17.80
2022-08-20T12:15:24.267Z,17.70
2022-08-20T12:17:50.972Z,17.50
2022-08-20T12:20:17.971Z,17.30
2022-08-20T12:22:44.852Z,17.20
2022-08-20T12:25:13.136Z,17.10
2022-08-20T12:27:41.344Z,17.00
2022-08-20T12:30:12.104Z,17.00
2022-08-20T12:32:39.378Z,17.10
2022-08-20T12:35:07.569Z,17.20
2022-08-20T12:37:34.405Z,17.30
2022-08-20T12:40:04.679Z,17.50
2022-08-20T12:42:31.478Z,17.60
2022-08-20T12:44:59.001Z,17.70
2022-08-20T12:47:28.823Z,17.90
2022-08-20T12:50:02.008Z,18.20
2022-08-20T12:52:30.331Z,18.60
2022-08-20T12:54:57.989Z,18.80
2022-08-20T12:57:39.181Z,19.00
2022-08-20T13:00:08.716Z,19.10
2022-08-20T13:02:35.456Z,19.30
2022-08-20T13:05:05.091Z,19.50
2022-08-20T13:07:33.198Z,19.60
2022-08-20T13:10:00.606Z,19.70
2022-08-20T13:12:27.517Z,20.00
2022-08-20T13:14:54.233Z,20.20
2022-08-20T13:17:38.336Z,20.20
2022-08-20T13:20:09.431Z,20.00
2022-08-20T13:22:36.436Z,20.00
2022-08-20T13:25:04.056Z,20.30
2022-08-20T13:27:30.815Z,20.30
2022-08-20T13:29:59.028Z,20.30
2022-08-20T13:32:26.212Z,20.40
2022-08-20T13:34:53.088Z,20.40
2022-08-20T13:37:25.953Z,20.10
2022-08-20T13:39:56.926Z,19.40
2022-08-20T13:42:24.303Z,18.80
2022-08-20T13:44:51.038Z,18.70
2022-08-20T13:47:30.086Z,18.60
2022-08-20T13:50:00.521Z,18.40
2022-08-20T13:52:27.701Z,18.10
2022-08-20T13:54:54.645Z,17.60
2022-08-20T13:57:23.154Z,17.40
2022-08-20T13:59:52.430Z,17.30
2022-08-20T14:02:20.316Z,17.20
2022-08-20T14:04:48.447Z,17.00
2022-08-20T14:07:18.329Z,16.90
2022-08-20T14:09:49.607Z,16.70
2022-08-20T14:12:16.881Z,16.70
2022-08-20T14:14:44.069Z,16.70
2022-08-20T14:17:15.105Z,16.70
2022-08-20T14:19:42.526Z,16.80
2022-08-20T14:22:09.425Z,16.80
2022-08-20T14:24:36.139Z,16.80
2022-08-20T14:27:05.121Z,16.70
2022-08-20T14:29:38.146Z,16.70
2022-08-20T14:32:06.121Z,16.80
2022-08-20T14:34:33.444Z,16.80
2022-08-20T14:37:30.909Z,16.80
2022-08-20T14:39:59.513Z,16.70
2022-08-20T14:42:28.254Z,16.60
2022-08-20T14:44:56.595Z,16.60
2022-08-20T14:47:29.265Z,16.50
2022-08-20T14:50:01.807Z,16.40
2022-08-20T14:52:29.104Z,16.30
2022-08-20T14:54:55.857Z,16.30
2022-08-20T14:57:23.230Z,16.30
2022-08-20T14:59:53.013Z,16.20
2022-08-20T15:02:20.023Z,16.20
2022-08-20T15:04:51.664Z,16.20
2022-08-20T15:07:26.615Z,16.10
2022-08-20T15:09:54.360Z,16.20
2022-08-20T15:12:21.653Z,16.10
2022-08-20T15:14:49.003Z,16.20
2022-08-20T15:17:25.180Z,16.30
2022-08-20T15:19:52.676Z,16.40
2022-08-20T15:22:19.776Z,16.50
2022-08-20T15:24:46.480Z,16.70
2022-08-20T15:27:21.935Z,16.70
2022-08-20T15:29:50.400Z,16.80
2022-08-20T15:32:17.407Z,16.80
2022-08-20T15:34:44.237Z,16.70
2022-08-20T15:37:17.207Z,16.70
2022-08-20T15:39:44.813Z,16.80
2022-08-20T15:42:12.930Z,17.00
2022-08-20T15:44:40.399Z,17.10
2022-08-20T15:47:14.403Z,17.30
2022-08-20T15:49:41.671Z,17.40
2022-08-20T15:52:08.701Z,17.40
2022-08-20T15:54:35.544Z,17.40
2022-08-20T15:57:09.849Z,17.30
2022-08-20T15:59:55.481Z,17.20
2022-08-20T16:02:31.017Z,17.20
2022-08-20T16:05:11.038Z,17.10
2022-08-20T16:07:53.692Z,17.10
2022-08-20T16:10:27.151Z,17.10
2022-08-20T16:12:58.044Z,17.00
2022-08-20T16:15:33.852Z,17.10
2022-08-20T16:18:07.565Z,17.10
2022-08-20T16:20:43.545Z,17.00
2022-08-20T16:23:23.329Z,17.00
2022-08-20T16:26:16.379Z,16.90
2022-08-20T16:28:57.737Z,16.70
2022-08-20T16:31:30.570Z,16.60
2022-08-20T16:34:28.176Z,16.60
2022-08-20T16:37:04.485Z,16.50
2022-08-20T16:39:51.102Z,16.50
2022-08-20T16:42:23.141Z,16.40
2022-08-20T16:44:53.730Z,16.40
2022-08-20T16:47:27.884Z,16.40
2022-08-20T16:50:04.655Z,16.50
2022-08-20T16:52:31.524Z,16.40
2022-08-20T16:54:58.351Z,16.50
2022-08-20T16:57:27.964Z,16.50
2022-08-20T16:59:57.473Z,16.40
2022-08-20T17:02:25.193Z,16.30
2022-08-20T17:04:59.993Z,16.20
2022-08-20T17:07:46.459Z,16.30
2022-08-20T17:10:32.811Z,16.20
2022-08-20T17:13:04.177Z,16.30
2022-08-20T17:15:35.111Z,16.40
2022-08-20T17:18:31.608Z,16.40
2022-08-20T17:21:26.280Z,16.40
2022-08-20T17:24:02.051Z,16.40
2022-08-20T17:26:35.433Z,16.30
2022-08-20T17:29:12.977Z,16.30
2022-08-20T17:31:46.730Z,16.40
2022-08-20T17:34:20.075Z,16.50
2022-08-20T17:37:05.121Z,16.50
2022-08-20T17:39:32.337Z,16.60
2022-08-20T17:42:08.927Z,16.60
2022-08-20T17:44:41.082Z,16.60
2022-08-20T17:47:16.034Z,16.60
2022-08-20T17:49:57.299Z,16.60
2022-08-20T17:52:41.470Z,16.70
2022-08-20T17:55:10.456Z,16.70
2022-08-20T17:57:40.502Z,16.70
2022-08-20T18:00:14.156Z,16.70
2022-08-20T18:02:41.882Z,16.70
2022-08-20T18:05:20.787Z,16.70
2022-08-20T18:08:16.425Z,16.70
2022-08-20T18:11:01.516Z,16.80
2022-08-20T18:13:45.050Z,16.80
2022-08-20T18:16:23.573Z,16.70
2022-08-20T18:19:04.010Z,16.70
2022-08-20T18:22:04.502Z,16.60
2022-08-20T18:24:49.004Z,16.50
2022-08-20T18:27:20.472Z,16.60
2022-08-20T18:29:58.181Z,16.60
2022-08-20T18:32:30.370Z,16.60
2022-08-20T18:35:31.857Z,16.60
2022-08-20T18:38:21.264Z,16.50
2022-08-20T18:40:50.034Z,16.50
2022-08-20T18:43:30.351Z,16.50
2022-08-20T18:46:13.306Z,16.40
2022-08-20T18:49:00.307Z,16.40
2022-08-20T18:51:42.386Z,16.40
2022-08-20T18:54:21.549Z,16.30
2022-08-20T18:56:48.261Z,16.30
2022-08-20T18:59:18.794Z,16.30
2022-08-20T19:01:48.491Z,16.30
2022-08-20T19:04:29.412Z,16.30
2022-08-20T19:07:01.555Z,16.30
2022-08-20T19:09:53.360Z,16.30
2022-08-20T19:12:37.940Z,16.30
2022-08-20T19:15:07.287Z,16.30
2022-08-20T19:17:42.771Z,16.30
2022-08-20T19:20:31.812Z,16.30
2022-08-20T19:23:15.017Z,16.30
2022-08-20T19:25:59.720Z,16.30
2022-08-20T19:28:46.261Z,16.30
2022-08-20T19:31:22.554Z,16.30
2022-08-20T19:33:51.765Z,16.20
2022-08-20T19:36:22.416Z,16.20
2022-08-20T19:38:58.064Z,16.20
2022-08-20T19:41:31.514Z,16.20
2022-08-20T19:43:59.577Z,16.30
2022-08-20T19:46:38.606Z,16.30
2022-08-20T19:49:17.924Z,16.30
2022-08-20T19:52:10.347Z,16.30
2022-08-20T19:54:56.305Z,16.20
2022-08-20T19:57:26.308Z,16.20
2022-08-20T19:59:57.194Z,16.20
2022-08-20T20:02:26.751Z,16.20
2022-08-20T20:04:55.581Z,16.20
2022-08-20T20:07:41.418Z,16.20
2022-08-20T20:10:19.653Z,16.20
2022-08-20T20:12:47.643Z,16.20
2022-08-20T20:15:14.472Z,16.10
2022-08-20T20:17:41.449Z,16.10
2022-08-20T20:20:20.403Z,16.10
2022-08-20T20:22:51.711Z,16.00
2022-08-20T20:25:26.682Z,16.00
2022-08-20T20:27:56.597Z,15.90
2022-08-20T20:30:33.938Z,15.90
2022-08-20T20:33:10.258Z,15.80
2022-08-20T20:35:37.222Z,15.80
2022-08-20T20:38:08.134Z,15.80
2022-08-20T20:40:54.599Z,15.80
2022-08-20T20:43:41.988Z,15.80
2022-08-20T20:46:23.931Z,15.80
2022-08-20T20:48:55.317Z,15.90
2022-08-20T20:51:31.714Z,15.90
2022-08-20T20:54:01.931Z,15.80
2022-08-20T20:56:31.896Z,15.80
2022-08-20T20:59:02.528Z,15.80
2022-08-20T21:01:45.693Z,15.80
2022-08-20T21:04:22.047Z,15.70
2022-08-20T21:06:50.166Z,15.80
2022-08-20T21:09:17.263Z,15.70
2022-08-20T21:11:44.382Z,15.70
2022-08-20T21:14:11.139Z,15.70
2022-08-20T21:16:37.825Z,15.70
2022-08-20T21:19:06.753Z,15.60
2022-08-20T21:21:34.168Z,15.60
2022-08-20T21:24:00.869Z,15.60
2022-08-20T21:26:28.305Z,15.50
2022-08-20T21:28:55.534Z,15.50
2022-08-20T21:31:33.802Z,15.50
2022-08-20T21:34:01.000Z,15.50
2022-08-20T21:36:28.942Z,15.40
2022-08-20T21:38:56.158Z,15.40
2022-08-20T21:41:30.019Z,15.30
2022-08-20T21:43:58.729Z,15.30
2022-08-20T21:46:28.553Z,15.30
2022-08-20T21:48:55.472Z,15.20
2022-08-20T21:51:22.203Z,15.20
2022-08-20T21:53:48.932Z,15.30
2022-08-20T21:56:15.822Z,15.20
2022-08-20T21:58:43.578Z,15.20
2022-08-20T22:01:12.322Z,15.20
2022-08-20T22:03:41.137Z,15.20
2022-08-20T22:06:10.328Z,15.20
2022-08-20T22:08:37.514Z,15.10
2022-08-20T22:11:06.870Z,15.00
2022-08-20T22:13:34.137Z,15.00
2022-08-20T22:16:06.803Z,15.10
2022-08-20T22:18:34.568Z,15.00
2022-08-20T22:21:01.795Z,15.00
2022-08-20T22:23:29.021Z,15.00
2022-08-20T22:25:55.783Z,15.10
2022-08-20T22:28:23.209Z,15.10
2022-08-20T22:30:50.234Z,15.10
2022-08-20T22:33:21.920Z,15.20
2022-08-20T22:35:52.332Z,15.20
2022-08-20T22:38:20.186Z,15.10
2022-08-20T22:40:47.364Z,15.20
2022-08-20T22:43:15.196Z,15.10
2022-08-20T22:45:45.381Z,15.20
2022-08-20T22:48:16.258Z,15.10
2022-08-20T22:50:43.841Z,15.20
2022-08-20T22:53:11.504Z,15.20
2022-08-20T22:55:38.564Z,15.10
2022-08-20T22:58:06.266Z,15.20
2022-08-20T23:00:34.275Z,15.20
2022-08-20T23:03:02.035Z,15.10
2022-08-20T23:05:32.920Z,15.10
2022-08-20T23:08:00.972Z,15.20
2022-08-20T23:10:30.302Z,15.20
2022-08-20T23:12:57.436Z,15.30
2022-08-20T23:15:26.504Z,15.30
2022-08-20T23:17:56.908Z,15.30
2022-08-20T23:20:24.025Z,15.30
2022-08-20T23:22:50.802Z,15.30
2022-08-20T23:25:21.812Z,15.40
2022-08-20T23:27:51.643Z,15.40
2022-08-20T23:30:20.742Z,15.40
2022-08-20T23:32:47.477Z,15.40
2022-08-20T23:35:14.284Z,15.40
2022-08-20T23:37:51.681Z,15.40
2022-08-20T23:40:28.166Z,15.30
2022-08-20T23:42:56.037Z,15.30
2022-08-20T23:45:23.432Z,15.30
2022-08-20T23:47:50.622Z,15.30
2022-08-20T23:50:20.580Z,15.30
2022-08-20T23:52:47.538Z,15.30
2022-08-20T23:55:14.367Z,15.30
2022-08-20T23:57:41.443Z,15.20
